ADDS METAR Data INFO
IDs: Format: Raw Decoded Include TAF

Data at: 1535 UTC 25 Feb 2018

KSFM 251525Z AUTO 10006KT 3/4SM -SN BR OVC005 01/00 A3026 RMK AO2 P0001 FZRANO RVRNO
KSFM 251515Z AUTO 10003KT 1/2SM SN FG OVC005 01/00 A3026 RMK AO2 CIG 003V009 P0000 FZRANO RVRNO
KSFM 251456Z AUTO 04004KT 1/4SM SN FZFG OVC005 M01/M01 A3027 RMK AO2 CIG 004V010 SLP257 P0001 60001 T10061011 56018 FZRANO RVRNO
KSFM 251441Z AUTO 03003KT 1/2SM SN FZFG BKN007 OVC013 M01/M02 A3028 RMK AO2 CIG 005V011 P0001 FZRANO RVRNO
KSFM 251422Z AUTO 06004KT 1/2SM SN FZFG OVC013 M01/M03 A3027 RMK AO2 P0000 FZRANO RVRNO
KSFM 251410Z AUTO 06006KT 3/4SM -SN BKN013 OVC025 M01/M03 A3027 RMK AO2 P0000 FZRANO RVRNO
KSFM 251405Z AUTO 06006KT 1SM -SN BKN015 OVC025 M01/M03 A3028 RMK AO2 P0000 FZRANO RVRNO
KSFM 251356Z AUTO 04007KT 2 1/2SM -SN FEW017 OVC025 00/M04 A3028 RMK AO2 VIS 1V5 UPB43E45SNB45 SLP260 P0000 T00001039 FZRANO
KSFM 251256Z AUTO 03005KT 10SM OVC027 M01/M05 A3031 RMK AO2 SLP271 T10061050 FZRANO
KSFM 251228Z AUTO 05005KT 10SM BKN029 M01/M05 A3030 RMK AO2 FZRANO
KSFM 251156Z AUTO 05005KT 10SM BKN110 M01/M05 A3033 RMK AO2 PRESFR SLP275 T10061050 11006 21044 50005 FZRANO
KSFM 251056Z AUTO 05006KT 10SM BKN120 M01/M06 A3034 RMK AO2 SLP280 T10061056 FZRANO
KSFM 250956Z AUTO 05007KT 10SM CLR M01/M06 A3034 RMK AO2 SLP278 T10061056 FZRANO
KSFM 250856Z AUTO 05010KT 10SM CLR M01/M05 A3031 RMK AO2 SLP268 T10061050 58004 FZRANO
KSFM 250756Z AUTO 06008KT 10SM CLR M01/M04 A3035 RMK AO2 SLP280 T10061044 FZRANO
KSFM 250656Z AUTO 04011KT 10SM CLR M01/M04 A3033 RMK AO2 SLP276 T10111039 FZRANO
KSFM 250556Z AUTO 04004KT 10SM CLR M04/M05 A3032 RMK AO2 SLP273 T10441050 10028 21044 53010 FZRANO
KSFM 250456Z AUTO 34003KT 10SM CLR M04/M05 A3032 RMK AO2 SLP272 T10441050 FZRANO
KSFM 250356Z AUTO 00000KT 10SM CLR M04/M05 A3029 RMK AO2 SLP264 T10441050 401001044 FZRANO
KSFM 250256Z AUTO 00000KT 10SM CLR M03/M05 A3029 RMK AO2 SLP263 T10331050 53033 FZRANO
KSFM 250156Z AUTO 00000KT 10SM CLR M03/M04 A3026 RMK AO2 SLP251 T10281044 FZRANO
KSFM 250056Z AUTO 00000KT 10SM CLR M01/M03 A3023 RMK AO2 SLP242 T10061028 FZRANO
KSFM 242356Z AUTO 28003KT 10SM CLR 03/M02 A3020 RMK AO2 SLP230 T00281022 10094 20022 51026
KSFM 242256Z AUTO 34006KT 10SM CLR 06/M03 A3019 RMK AO2 SLP229 T00611028
KSFM 242156Z AUTO 29005KT 10SM CLR 07/M02 A3016 RMK AO2 SLP218 T00721022
KSFM 242056Z AUTO 28006KT 10SM CLR 08/M02 A3012 RMK AO2 SLP205 T00781017 52015
KSFM 241956Z AUTO 30014G18KT 10SM CLR 08/M02 A3010 RMK AO2 SLP199 T00831017
KSFM 241856Z AUTO 28011G18KT 10SM CLR 09/M02 A3009 RMK AO2 SLP194 T00941017
KSFM 241756Z AUTO 29015G22KT 10SM CLR 09/M02 A3007 RMK AO2 SLP189 T00891022 10100 20033 50008
KSFM 241656Z AUTO 30013G19KT 10SM CLR 09/M02 A3008 RMK AO2 SLP191 T00941017
KSFM 241556Z AUTO 31012G26KT 10SM CLR 09/M01 A3005 RMK AO2 PK WND 29027/1521 SLP180 T00941006
KSFM 241456Z AUTO 28013G25KT 10SM CLR 09/01 A3005 RMK AO2 SLP181 T00890006 51015
KSFM 241356Z AUTO 29013G25KT 10SM CLR 08/02 A3004 RMK AO2 SLP179 T00780017
KSFM 241256Z AUTO 27010KT 10SM CLR 06/03 A3003 RMK AO2 SLP172 T00610033
KSFM 241156Z AUTO 25007KT 10SM CLR 03/02 A3000 RMK AO2 SLP166 70018 T00330022 10033 20011 53018
KSFM 241056Z AUTO 24009KT 10SM CLR 02/01 A2997 RMK AO2 SLP155 T00220011 FZRANO
KSFM 240956Z AUTO 21006KT 10SM CLR 02/01 A2996 RMK AO2 SLP151 T00170011 FZRANO
KSFM 240856Z AUTO 23007KT 10SM CLR 02/01 A2995 RMK AO2 SLP147 T00170011 56016 FZRANO
KSFM 240804Z AUTO 21005KT 10SM SCT005 SCT025 02/01 A2996 RMK AO2 FZRANO
KSFM 240756Z AUTO 21005KT 10SM BKN005 BKN025 01/01 A2996 RMK AO2 SLP151 T00110011 FZRANO
KSFM 240656Z AUTO 22005KT 10SM OVC005 02/01 A2997 RMK AO2 SLP155 T00170011 FZRANO
KSFM 240556Z AUTO 22004KT 10SM OVC005 01/01 A3000 RMK AO2 SLP163 60012 T00110006 10011 20011 56048 FZRANO
KSFM 240456Z AUTO 22006KT 10SM OVC003 01/01 A3003 RMK AO2 UPE03 SLP174 P0000 T00110006 FZRANO
KSFM 240356Z AUTO 19004KT 6SM UP BR OVC003 01/01 A3008 RMK AO2 RAE04UPB04E26B47 SLP190 P0000 T00110006 400281094 FZRANO